Time;durP1;ratioP1;P1;durP2;ratioP2;P2;SDS_P1;SDS_P2;PMS_P1;PMS_P2;Temp;Humidity;BMP_temperature;BMP_pressure;BME280_temperature;BME280_humidity;BME280_pressure;Samples;Min_cycle;Max_cycle;Signal;HPM_P1;HPM_P2
2022/08/11 00:01:07;;;;;;;16.70;7.45;;;;;;;;;;5012288;28;20128;-67
2022/08/11 00:03:34;;;;;;;17.55;7.47;;;;;;;;;;5012506;28;20126;-66
2022/08/11 00:06:00;;;;;;;15.63;7.47;;;;;;;;;;5012653;28;20155;-67
2022/08/11 00:08:28;;;;;;;14.73;7.18;;;;;;;;;;5012136;28;20042;-67
2022/08/11 00:11:11;;;;;;;17.02;8.32;;;;;;;;;;4994733;28;20046;-67
2022/08/11 00:13:44;;;;;;;14.63;7.35;;;;;;;;;;5011778;28;20050;-67
2022/08/11 00:16:24;;;;;;;14.57;8.52;;;;;;;;;;5012187;28;20188;-67
2022/08/11 00:18:51;;;;;;;14.40;7.93;;;;;;;;;;5011874;28;20462;-67
2022/08/11 00:21:19;;;;;;;15.40;8.13;;;;;;;;;;5011898;28;20046;-67
2022/08/11 00:24:07;;;;;;;14.68;8.00;;;;;;;;;;5011557;28;20081;-67
2022/08/11 00:26:35;;;;;;;16.90;8.35;;;;;;;;;;5011541;28;20052;-67
2022/08/11 00:29:11;;;;;;;15.10;7.78;;;;;;;;;;5011866;28;20372;-67
2022/08/11 00:31:37;;;;;;;14.52;8.10;;;;;;;;;;5011607;28;20098;-67
2022/08/11 00:34:08;;;;;;;15.57;8.05;;;;;;;;;;5011174;28;20399;-67
2022/08/11 00:36:39;;;;;;;15.60;8.43;;;;;;;;;;5011624;28;20241;-67
2022/08/11 00:39:07;;;;;;;13.93;8.23;;;;;;;;;;5010213;28;20390;-67
2022/08/11 00:41:33;;;;;;;15.52;7.68;;;;;;;;;;5011005;28;20042;-67
2022/08/11 00:43:59;;;;;;;16.45;7.70;;;;;;;;;;5011131;28;20046;-67
2022/08/11 00:46:25;;;;;;;15.18;8.25;;;;;;;;;;5011147;28;20103;-67
2022/08/11 00:48:51;;;;;;;;;;;;;;;;;;5011543;28;20137;-67
2022/08/11 00:51:37;;;;;;;16.10;8.40;;;;;;;;;;5011093;28;20070;-67
2022/08/11 00:54:35;;;;;;;13.88;8.13;;;;;;;;;;5011239;28;20068;-67
2022/08/11 00:57:04;;;;;;;19.13;8.52;;;;;;;;;;4967443;28;20054;-67
2022/08/11 00:59:47;;;;;;;16.77;8.18;;;;;;;;;;5011092;28;20120;-67
2022/08/11 01:02:12;;;;;;;14.80;9.00;;;;;;;;;;5011229;28;20056;-67
2022/08/11 01:04:39;;;;;;;16.80;7.57;;;;;;;;;;5011032;28;20458;-68
2022/08/11 01:07:34;;;;;;;15.98;8.48;;;;;;;;;;5011053;28;20060;-67
2022/08/11 01:10:19;;;;;;;16.58;8.20;;;;;;;;;;5011098;28;20081;-67
2022/08/11 01:12:52;;;;;;;16.15;8.23;;;;;;;;;;5010846;28;20121;-67
2022/08/11 01:15:41;;;;;;;17.73;9.00;;;;;;;;;;5010786;28;20176;-67
2022/08/11 01:18:19;;;;;;;16.73;8.85;;;;;;;;;;4957175;28;20145;-67
2022/08/11 01:20:58;;;;;;;15.57;8.43;;;;;;;;;;5010516;28;20167;-67
2022/08/11 01:23:36;;;;;;;16.05;9.15;;;;;;;;;;5010562;28;20359;-67
2022/08/11 01:26:21;;;;;;;14.02;7.93;;;;;;;;;;5010212;28;20136;-67
2022/08/11 01:28:53;;;;;;;18.13;9.32;;;;;;;;;;4992716;28;20046;-67
2022/08/11 01:31:38;;;;;;;20.58;9.45;;;;;;;;;;5010242;28;20125;-67
2022/08/11 01:34:22;;;;;;;17.77;9.63;;;;;;;;;;5010216;28;20046;-67
2022/08/11 01:36:48;;;;;;;20.85;10.48;;;;;;;;;;4992034;28;20108;-67
2022/08/11 01:39:33;;;;;;;16.30;9.60;;;;;;;;;;5010132;28;20077;-67
2022/08/11 01:44:47;;;;;;;18.00;9.30;;;;;;;;;;5010179;28;20477;-67
2022/08/11 01:47:50;;;;;;;18.67;10.15;;;;;;;;;;5010376;28;20046;-67
2022/08/11 01:50:35;;;;;;;19.27;9.68;;;;;;;;;;5009927;28;20049;-67
2022/08/11 01:53:04;;;;;;;16.88;9.15;;;;;;;;;;5009829;28;20388;-67
2022/08/11 01:55:39;;;;;;;17.20;9.77;;;;;;;;;;5010159;28;20457;-67
2022/08/11 01:58:05;;;;;;;16.90;9.60;;;;;;;;;;4992311;28;20045;-67
2022/08/11 02:00:35;;;;;;;20.08;10.10;;;;;;;;;;5010501;28;20366;-67
2022/08/11 02:03:12;;;;;;;19.65;10.10;;;;;;;;;;5010015;28;20053;-67
2022/08/11 02:05:55;;;;;;;22.48;10.60;;;;;;;;;;4992300;28;20054;-71
2022/08/11 02:08:23;;;;;;;20.92;10.10;;;;;;;;;;5010390;28;20050;-67
2022/08/11 02:13:50;;;;;;;18.50;10.18;;;;;;;;;;4992396;28;20387;-67
2022/08/11 02:16:35;;;;;;;17.65;10.90;;;;;;;;;;5009817;28;20423;-67
2022/08/11 02:24:49;;;;;;;19.38;11.07;;;;;;;;;;5009428;28;20367;-65
2022/08/11 02:27:20;;;;;;;15.57;9.80;;;;;;;;;;5009440;28;20402;-67
2022/08/11 02:30:03;;;;;;;17.85;10.90;;;;;;;;;;5009414;28;20065;-67
2022/08/11 02:35:46;;;;;;;22.00;11.32;;;;;;;;;;5009005;28;20049;-67
2022/08/11 02:38:25;;;;;;;17.27;10.15;;;;;;;;;;5009471;28;20500;-67
2022/08/11 02:40:51;;;;;;;19.73;10.68;;;;;;;;;;5009561;28;20145;-67
2022/08/11 02:43:35;;;;;;;19.05;10.52;;;;;;;;;;5009331;28;20129;-67
2022/08/11 02:46:16;;;;;;;21.52;10.65;;;;;;;;;;5009466;28;20097;-67
2022/08/11 02:52:04;;;;;;;19.33;11.27;;;;;;;;;;5009298;28;20152;-67
2022/08/11 02:55:02;;;;;;;20.63;11.80;;;;;;;;;;5008981;28;20042;-67
2022/08/11 02:57:40;;;;;;;23.48;13.02;;;;;;;;;;4965459;28;20058;-67
2022/08/11 03:00:08;;;;;;;21.63;12.18;;;;;;;;;;5008815;28;20485;-67
2022/08/11 03:02:37;;;;;;;20.45;11.82;;;;;;;;;;5012802;28;20136;-67
2022/08/11 03:05:19;;;;;;;17.65;11.05;;;;;;;;;;5015341;28;20050;-67
2022/08/11 03:08:05;;;;;;;21.70;12.77;;;;;;;;;;5015865;28;20050;-67
2022/08/11 03:10:37;;;;;;;19.40;11.90;;;;;;;;;;5015469;28;20041;-67
2022/08/11 03:19:26;;;;;;;20.38;12.05;;;;;;;;;;5014789;28;20060;-67
2022/08/11 03:22:07;;;;;;;21.98;12.73;;;;;;;;;;4997752;28;20149;-67
2022/08/11 03:24:33;;;;;;;21.42;12.52;;;;;;;;;;5015654;28;20185;-67
2022/08/11 03:26:59;;;;;;;22.45;12.82;;;;;;;;;;5015012;28;20479;-67
2022/08/11 03:29:35;;;;;;;19.02;11.43;;;;;;;;;;5015505;28;20093;-67
2022/08/11 03:32:05;;;;;;;19.77;12.30;;;;;;;;;;5015372;28;20120;-67
2022/08/11 03:34:35;;;;;;;20.95;13.38;;;;;;;;;;5015285;28;20331;-67
2022/08/11 03:43:20;;;;;;;21.08;12.85;;;;;;;;;;5015434;28;20089;-67
2022/08/11 03:45:58;;;;;;;22.20;14.10;;;;;;;;;;5015062;28;20343;-67
2022/08/11 03:48:38;;;;;;;20.48;13.65;;;;;;;;;;5015242;28;20513;-67
2022/08/11 03:51:30;;;;;;;21.48;13.32;;;;;;;;;;4997050;28;20152;-67
2022/08/11 03:54:32;;;;;;;23.25;14.25;;;;;;;;;;5010970;28;20381;-67
2022/08/11 03:57:21;;;;;;;24.70;13.63;;;;;;;;;;4934385;29;20135;-67
2022/08/11 04:00:08;;;;;;;19.75;12.35;;;;;;;;;;5010732;28;20065;-67
2022/08/11 04:02:41;;;;;;;22.33;14.27;;;;;;;;;;4996410;28;20084;-67
2022/08/11 04:05:25;;;;;;;28.42;14.50;;;;;;;;;;5014469;28;20038;-67
2022/08/11 04:08:04;;;;;;;24.83;14.68;;;;;;;;;;5014660;28;20125;-67
2022/08/11 04:10:33;;;;;;;21.45;14.35;;;;;;;;;;4997008;28;20108;-66
2022/08/11 04:13:18;;;;;;;24.65;15.25;;;;;;;;;;5013890;28;20445;-67
2022/08/11 04:16:02;;;;;;;26.40;14.82;;;;;;;;;;5011999;28;20056;-67
2022/08/11 04:18:48;;;;;;;22.05;14.38;;;;;;;;;;5011964;28;20053;-67
2022/08/11 04:21:32;;;;;;;22.42;14.10;;;;;;;;;;5011646;28;20046;-66
2022/08/11 04:24:14;;;;;;;24.92;13.35;;;;;;;;;;5012065;28;20116;-67
2022/08/11 04:26:44;;;;;;;22.67;14.73;;;;;;;;;;5011846;28;20123;-67
2022/08/11 04:29:28;;;;;;;24.35;14.50;;;;;;;;;;5011851;28;20485;-67
2022/08/11 04:32:07;;;;;;;21.85;14.00;;;;;;;;;;5011828;28;20045;-67
2022/08/11 04:34:33;;;;;;;24.52;14.45;;;;;;;;;;5011520;28;20137;-67
2022/08/11 04:39:58;;;;;;;24.33;14.93;;;;;;;;;;5011734;28;20065;-67
2022/08/11 04:45:27;;;;;;;26.17;13.88;;;;;;;;;;5011229;28;20132;-68
2022/08/11 05:02:13;;;;;;;22.35;13.38;;;;;;;;;;5010995;28;20446;-67
2022/08/11 05:07:42;;;;;;;26.23;13.85;;;;;;;;;;5011136;28;20053;-67
2022/08/11 05:10:17;;;;;;;19.48;11.85;;;;;;;;;;5011005;28;20052;-67
2022/08/11 05:12:43;;;;;;;19.60;12.48;;;;;;;;;;5010928;28;20542;-67
2022/08/11 05:34:55;;;;;;;;;;;;;;;;;;5010978;28;20115;-67
2022/08/11 05:37:31;;;;;;;16.33;10.25;;;;;;;;;;5010138;28;19921;-67
2022/08/11 05:57:04;;;;;;;19.38;10.00;;;;;;;;;;5009356;28;20062;-67
2022/08/11 05:59:32;;;;;;;22.08;10.40;;;;;;;;;;5009230;28;20504;-67
2022/08/11 06:02:04;;;;;;;16.35;9.70;;;;;;;;;;5009550;28;20049;-67
2022/08/11 06:04:31;;;;;;;17.73;9.35;;;;;;;;;;5009628;28;20134;-67
2022/08/11 06:06:57;;;;;;;16.55;9.23;;;;;;;;;;5009059;28;20046;-67
2022/08/11 06:09:24;;;;;;;18.13;10.23;;;;;;;;;;5009514;28;20463;-67
2022/08/11 06:11:50;;;;;;;20.42;10.45;;;;;;;;;;5009494;28;20053;-67
2022/08/11 06:14:17;;;;;;;19.20;9.82;;;;;;;;;;5009312;28;20167;-67
2022/08/11 06:16:46;;;;;;;17.95;9.63;;;;;;;;;;4991400;28;20117;-67
2022/08/11 06:19:13;;;;;;;16.75;8.98;;;;;;;;;;5009236;28;20046;-71
2022/08/11 06:21:44;;;;;;;18.40;9.75;;;;;;;;;;4991498;28;20123;-67
2022/08/11 06:24:11;;;;;;;17.08;9.63;;;;;;;;;;5008237;28;20046;-67
2022/08/11 06:26:37;;;;;;;16.73;9.15;;;;;;;;;;4991128;28;20154;-67
2022/08/11 06:29:05;;;;;;;18.08;8.95;;;;;;;;;;5008981;28;20053;-67
2022/08/11 06:31:32;;;;;;;14.45;7.47;;;;;;;;;;5009007;28;20057;-67
2022/08/11 06:34:10;;;;;;;18.33;8.10;;;;;;;;;;5008988;28;20042;-67
2022/08/11 06:36:44;;;;;;;17.50;8.93;;;;;;;;;;5008202;28;20089;-67
2022/08/11 06:39:44;;;;;;;20.08;9.15;;;;;;;;;;5009366;28;20144;-68
2022/08/11 06:42:12;;;;;;;15.73;7.70;;;;;;;;;;4991284;28;20061;-67
2022/08/11 06:44:40;;;;;;;17.63;8.25;;;;;;;;;;5008644;28;20045;-67
2022/08/11 06:47:09;;;;;;;16.35;7.72;;;;;;;;;;5008978;28;20127;-67
2022/08/11 06:52:29;;;;;;;15.45;7.25;;;;;;;;;;5008903;28;20061;-67
2022/08/11 06:55:05;;;;;;;15.13;8.20;;;;;;;;;;5008582;28;20208;-67
2022/08/11 07:00:27;;;;;;;18.60;8.80;;;;;;;;;;5008803;28;20056;-67
2022/08/11 07:03:13;;;;;;;14.48;8.10;;;;;;;;;;4990594;28;20453;-67
2022/08/11 07:05:42;;;;;;;19.75;7.40;;;;;;;;;;5008537;28;20085;-67
2022/08/11 07:16:48;;;;;;;13.85;7.47;;;;;;;;;;5008366;28;20423;-67
2022/08/11 07:30:36;;;;;;;14.55;6.13;;;;;;;;;;5008215;28;20058;-67
2022/08/11 07:33:02;;;;;;;13.23;6.13;;;;;;;;;;4990486;28;20350;-66
2022/08/11 07:35:28;;;;;;;16.08;6.25;;;;;;;;;;5008062;28;20112;-67
2022/08/11 07:37:54;;;;;;;;;;;;;;;;;;5008796;28;20134;-66
2022/08/11 07:40:24;;;;;;;15.38;5.32;;;;;;;;;;5008481;28;20372;-66
2022/08/11 07:42:50;;;;;;;17.48;5.38;;;;;;;;;;4990586;28;20153;-66
2022/08/11 07:53:33;;;;;;;11.50;5.75;;;;;;;;;;4994262;28;20049;-67
2022/08/11 07:56:04;;;;;;;11.00;4.88;;;;;;;;;;5011365;28;20105;-67
2022/08/11 08:17:59;;;;;;;12.80;4.30;;;;;;;;;;5011451;28;20060;-68
2022/08/11 08:20:37;;;;;;;11.88;4.20;;;;;;;;;;5011217;28;20422;-67
2022/08/11 08:23:07;;;;;;;9.27;4.10;;;;;;;;;;5011560;28;20065;-68
2022/08/11 08:25:34;;;;;;;10.43;3.95;;;;;;;;;;5011287;28;20159;-66
2022/08/11 08:28:02;;;;;;;8.63;3.83;;;;;;;;;;5011229;28;20072;-65
2022/08/11 08:30:49;;;;;;;15.95;4.32;;;;;;;;;;5011539;28;20049;-65
2022/08/11 08:33:36;;;;;;;11.32;3.92;;;;;;;;;;5010949;28;20149;-65
2022/08/11 08:36:15;;;;;;;8.60;3.35;;;;;;;;;;5009881;28;20049;-66
2022/08/11 08:38:42;;;;;;;12.25;3.60;;;;;;;;;;5010859;28;20050;-65
2022/08/11 08:41:09;;;;;;;12.07;3.97;;;;;;;;;;5011050;28;20132;-65
2022/08/11 08:43:36;;;;;;;10.48;3.63;;;;;;;;;;5011168;28;20042;-66
2022/08/11 08:46:04;;;;;;;11.75;3.40;;;;;;;;;;5010735;28;20446;-66
2022/08/11 08:48:31;;;;;;;9.48;3.38;;;;;;;;;;5010947;28;20054;-65
2022/08/11 08:53:48;;;;;;;11.35;3.30;;;;;;;;;;5010677;28;20046;-66
2022/08/11 08:56:14;;;;;;;12.38;3.10;;;;;;;;;;4992768;28;20050;-66
2022/08/11 08:58:49;;;;;;;11.63;3.10;;;;;;;;;;4978359;28;20140;-67
2022/08/11 09:01:16;;;;;;;12.05;3.33;;;;;;;;;;5009923;28;20130;-65
2022/08/11 09:03:42;;;;;;;10.90;3.10;;;;;;;;;;5010544;28;20137;-66
2022/08/11 09:06:09;;;;;;;10.57;3.40;;;;;;;;;;5010673;28;20042;-65
2022/08/11 09:08:35;;;;;;;8.55;3.10;;;;;;;;;;5010855;28;20068;-70
2022/08/11 09:13:48;;;;;;;12.95;3.15;;;;;;;;;;5009990;28;20061;-65
2022/08/11 09:16:15;;;;;;;9.93;3.35;;;;;;;;;;5010104;28;20080;-66
2022/08/11 09:18:43;;;;;;;11.82;2.97;;;;;;;;;;5009866;28;20435;-66
2022/08/11 09:21:11;;;;;;;10.07;3.40;;;;;;;;;;5009849;28;20545;-66
2022/08/11 09:29:11;;;;;;;10.27;3.45;;;;;;;;;;5009753;28;20441;-66
2022/08/11 09:31:38;;;;;;;15.73;3.45;;;;;;;;;;5009748;28;20513;-66
2022/08/11 09:34:04;;;;;;;10.57;3.45;;;;;;;;;;5009953;28;20042;-65
2022/08/11 09:42:01;;;;;;;9.48;2.70;;;;;;;;;;5009474;28;20050;-66
2022/08/11 09:47:17;;;;;;;7.95;2.70;;;;;;;;;;5008896;28;20057;-66
2022/08/11 09:49:44;;;;;;;11.05;3.15;;;;;;;;;;4975929;28;20508;-66
2022/08/11 09:52:13;;;;;;;9.55;2.50;;;;;;;;;;5009017;28;20117;-67
2022/08/11 09:54:43;;;;;;;7.85;3.13;;;;;;;;;;5009367;28;20342;-66
2022/08/11 09:59:53;;;;;;;10.35;3.10;;;;;;;;;;5009738;28;20382;-66
2022/08/11 10:02:27;;;;;;;12.35;3.05;;;;;;;;;;5009370;28;20116;-66
2022/08/11 10:07:43;;;;;;;7.97;2.50;;;;;;;;;;5008863;28;20125;-66
2022/08/11 10:10:09;;;;;;;8.38;3.00;;;;;;;;;;5009062;28;20046;-67
2022/08/11 10:12:36;;;;;;;7.65;2.85;;;;;;;;;;5008098;28;20050;-67
2022/08/11 10:20:51;;;;;;;9.57;3.28;;;;;;;;;;5008816;28;20109;-67
2022/08/11 10:28:49;;;;;;;10.95;2.83;;;;;;;;;;4991377;28;20069;-67
2022/08/11 10:34:05;;;;;;;8.82;2.83;;;;;;;;;;5008731;28;20072;-67
2022/08/11 10:36:41;;;;;;;7.95;2.70;;;;;;;;;;5009236;28;20046;-67
2022/08/11 10:39:08;;;;;;;7.93;2.50;;;;;;;;;;5008503;28;20173;-67
2022/08/11 10:44:26;;;;;;;7.75;2.50;;;;;;;;;;5008470;28;20442;-66
2022/08/11 10:49:37;;;;;;;8.52;2.53;;;;;;;;;;5008566;28;20148;-67
2022/08/11 11:00:23;;;;;;;7.70;2.67;;;;;;;;;;5007999;28;20050;-67
2022/08/11 11:02:50;;;;;;;7.30;2.65;;;;;;;;;;5007844;28;20092;-67
2022/08/11 11:05:27;;;;;;;8.27;3.00;;;;;;;;;;5007976;28;20065;-68
2022/08/11 11:07:56;;;;;;;7.68;2.60;;;;;;;;;;5008133;28;20112;-68
2022/08/11 11:10:22;;;;;;;6.03;2.45;;;;;;;;;;5007674;28;20113;-67
2022/08/11 11:18:27;;;;;;;10.40;2.67;;;;;;;;;;5007577;28;20369;-67
2022/08/11 11:21:05;;;;;;;10.82;3.33;;;;;;;;;;5008039;28;20328;-70
2022/08/11 11:23:52;;;;;;;10.13;3.25;;;;;;;;;;5009396;28;20050;-68
2022/08/11 11:26:33;;;;;;;11.50;3.30;;;;;;;;;;5011666;28;20045;-67
2022/08/11 11:29:10;;;;;;;7.78;3.00;;;;;;;;;;5012097;28;20046;-68
2022/08/11 11:31:55;;;;;;;11.50;3.40;;;;;;;;;;5012117;28;20200;-69
2022/08/11 11:34:27;;;;;;;9.93;3.13;;;;;;;;;;5011462;28;20122;-67
2022/08/11 11:36:55;;;;;;;13.40;3.45;;;;;;;;;;5011714;28;20118;-68
2022/08/11 11:39:23;;;;;;;10.60;3.30;;;;;;;;;;5012294;28;20054;-67
2022/08/11 11:41:50;;;;;;;11.18;3.25;;;;;;;;;;5012081;28;20093;-68
2022/08/11 11:44:17;;;;;;;11.40;3.30;;;;;;;;;;5012228;28;20046;-68
2022/08/11 11:46:44;;;;;;;12.02;3.40;;;;;;;;;;5012093;28;20045;-68
2022/08/11 11:49:11;;;;;;;8.23;3.13;;;;;;;;;;5011246;28;20075;-67
2022/08/11 11:51:37;;;;;;;11.00;3.28;;;;;;;;;;5011731;28;20069;-67
2022/08/11 11:54:04;;;;;;;8.57;3.00;;;;;;;;;;5010982;28;20465;-67
2022/08/11 11:56:30;;;;;;;8.85;2.88;;;;;;;;;;5010702;28;20133;-67
2022/08/11 12:01:42;;;;;;;9.23;2.97;;;;;;;;;;5011291;28;20049;-68
2022/08/11 12:04:10;;;;;;;10.23;3.00;;;;;;;;;;5011213;28;20133;-69
2022/08/11 12:06:40;;;;;;;13.02;3.28;;;;;;;;;;5009890;28;20084;-68
2022/08/11 12:09:06;;;;;;;8.13;3.00;;;;;;;;;;5011276;28;20218;-68
2022/08/11 12:14:18;;;;;;;8.93;2.72;;;;;;;;;;5011323;28;20054;-69
2022/08/11 12:16:45;;;;;;;8.50;2.55;;;;;;;;;;5010923;28;20053;-68
2022/08/11 12:19:17;;;;;;;8.00;2.70;;;;;;;;;;4993876;28;20046;-67
2022/08/11 12:27:20;;;;;;;8.68;2.60;;;;;;;;;;5011204;28;20065;-68
2022/08/11 12:29:51;;;;;;;8.02;2.65;;;;;;;;;;5011390;28;20148;-67
2022/08/11 12:32:18;;;;;;;9.07;2.72;;;;;;;;;;5011291;28;20113;-67
2022/08/11 12:34:44;;;;;;;8.13;2.20;;;;;;;;;;5009688;28;20090;-68
2022/08/11 12:37:12;;;;;;;8.02;2.50;;;;;;;;;;5010759;28;20076;-68
2022/08/11 12:45:28;;;;;;;7.75;2.70;;;;;;;;;;5010936;28;20108;-66
2022/08/11 12:53:33;;;;;;;7.63;2.70;;;;;;;;;;4994951;28;20157;-67
2022/08/11 12:58:49;;;;;;;8.85;2.58;;;;;;;;;;5010719;28;20061;-67
2022/08/11 13:06:47;;;;;;;7.88;2.65;;;;;;;;;;5010382;28;20374;-67
2022/08/11 13:09:17;;;;;;;7.38;2.40;;;;;;;;;;5010447;28;20084;-67
2022/08/11 13:14:32;;;;;;;7.40;2.55;;;;;;;;;;5010489;28;20458;-68
2022/08/11 13:19:44;;;;;;;7.53;2.65;;;;;;;;;;5010201;28;20212;-66
2022/08/11 13:22:11;;;;;;;9.88;2.67;;;;;;;;;;5009991;28;20100;-67
2022/08/11 13:24:38;;;;;;;7.20;2.47;;;;;;;;;;5010140;28;20050;-68
2022/08/11 13:27:05;;;;;;;6.90;2.50;;;;;;;;;;4992339;28;20068;-67
2022/08/11 13:29:31;;;;;;;6.25;2.30;;;;;;;;;;5009805;28;20156;-67
2022/08/11 13:32:01;;;;;;;6.65;2.20;;;;;;;;;;5009793;28;20090;-67
2022/08/11 13:34:29;;;;;;;8.38;2.58;;;;;;;;;;5009632;28;20096;-67
2022/08/11 13:36:58;;;;;;;7.85;2.30;;;;;;;;;;5010064;28;20053;-67
2022/08/11 13:39:25;;;;;;;7.05;2.50;;;;;;;;;;5009723;28;20458;-66
2022/08/11 13:41:52;;;;;;;7.68;2.58;;;;;;;;;;5009100;28;20064;-67
2022/08/11 13:44:19;;;;;;;12.80;3.08;;;;;;;;;;5009289;28;20115;-67
2022/08/11 13:46:45;;;;;;;13.57;2.70;;;;;;;;;;5009164;28;20069;-67
2022/08/11 13:49:15;;;;;;;8.50;2.50;;;;;;;;;;5009540;28;20049;-66
2022/08/11 13:51:41;;;;;;;7.82;2.50;;;;;;;;;;4991822;28;20125;-67
2022/08/11 13:54:17;;;;;;;4.28;1.95;;;;;;;;;;5008805;28;20111;-67
2022/08/11 13:56:45;;;;;;;12.70;2.83;;;;;;;;;;4991302;28;20145;-67
2022/08/11 13:59:12;;;;;;;8.40;2.70;;;;;;;;;;5008453;28;20056;-67
2022/08/11 14:01:40;;;;;;;6.50;2.30;;;;;;;;;;5009286;28;20062;-66
2022/08/11 14:04:10;;;;;;;11.13;2.50;;;;;;;;;;5008688;28;20090;-67
2022/08/11 14:06:40;;;;;;;7.78;2.40;;;;;;;;;;5008849;28;20046;-67
2022/08/11 14:09:09;;;;;;;8.43;2.47;;;;;;;;;;5008752;28;20092;-67
2022/08/11 14:14:24;;;;;;;7.70;2.53;;;;;;;;;;5009301;28;20133;-69
2022/08/11 14:16:51;;;;;;;9.38;2.70;;;;;;;;;;5008757;28;20145;-66
2022/08/11 14:19:20;;;;;;;8.27;2.67;;;;;;;;;;5008860;28;20046;-69
2022/08/11 14:24:32;;;;;;;8.40;2.47;;;;;;;;;;4993796;28;20118;-67
2022/08/11 14:26:59;;;;;;;8.88;2.55;;;;;;;;;;5008500;28;20493;-66
2022/08/11 14:29:27;;;;;;;11.88;2.95;;;;;;;;;;5008541;28;20057;-67
2022/08/11 14:31:54;;;;;;;6.35;2.55;;;;;;;;;;5009188;28;20199;-67
2022/08/11 14:34:21;;;;;;;6.55;2.22;;;;;;;;;;5008176;28;20108;-67
2022/08/11 14:36:51;;;;;;;9.88;2.72;;;;;;;;;;5008172;28;20447;-67
2022/08/11 14:39:18;;;;;;;18.40;3.08;;;;;;;;;;4990857;28;20152;-66
2022/08/11 14:47:17;;;;;;;8.73;2.70;;;;;;;;;;5008222;28;20050;-66
2022/08/11 14:49:43;;;;;;;11.25;2.42;;;;;;;;;;5008072;28;20053;-66
2022/08/11 14:52:14;;;;;;;7.45;2.50;;;;;;;;;;4990771;28;20085;-66
2022/08/11 14:57:27;;;;;;;8.87;2.80;;;;;;;;;;5007905;28;20054;-66
2022/08/11 14:59:54;;;;;;;7.05;2.53;;;;;;;;;;5007435;28;20458;-67
2022/08/11 15:05:06;;;;;;;9.73;2.70;;;;;;;;;;4990649;28;20060;-67
2022/08/11 15:07:32;;;;;;;10.23;2.60;;;;;;;;;;5008465;28;20050;-65
2022/08/11 15:10:00;;;;;;;8.73;2.53;;;;;;;;;;4990488;28;20184;-69
2022/08/11 15:12:27;;;;;;;12.82;2.80;;;;;;;;;;5008426;28;20397;-66
2022/08/11 15:17:39;;;;;;;8.30;2.72;;;;;;;;;;5008309;28;20145;-68
2022/08/11 15:25:39;;;;;;;9.63;3.05;;;;;;;;;;4993820;28;20090;-66
2022/08/11 15:39:19;;;;;;;8.57;2.90;;;;;;;;;;5008349;28;20561;-67
2022/08/11 15:45:47;;;;;;;11.15;2.50;;;;;;;;;;5007905;28;20140;-66
2022/08/11 15:47:25;;;;;;;10.38;2.90;;;;;;;;;;5008226;28;20066;-67
2022/08/11 15:49:54;;;;;;;8.45;2.80;;;;;;;;;;5007945;28;20100;-66
2022/08/11 15:52:26;;;;;;;10.30;2.90;;;;;;;;;;5008229;28;20085;-69
2022/08/11 15:54:52;;;;;;;9.98;2.70;;;;;;;;;;5007927;28;20141;-67
2022/08/11 16:06:12;;;;;;;10.05;2.90;;;;;;;;;;4928199;29;20091;-71
2022/08/11 16:08:40;;;;;;;8.85;2.90;;;;;;;;;;4992368;28;20057;-67
2022/08/11 16:11:07;;;;;;;10.23;2.97;;;;;;;;;;5011545;28;20065;-68
2022/08/11 16:16:20;;;;;;;13.38;3.00;;;;;;;;;;5011295;28;20050;-68
2022/08/11 16:18:55;;;;;;;11.00;3.10;;;;;;;;;;5011469;28;20111;-68
2022/08/11 16:21:30;;;;;;;7.47;2.70;;;;;;;;;;4993587;28;20041;-69
2022/08/11 16:23:57;;;;;;;7.53;2.92;;;;;;;;;;5011591;28;20053;-69
2022/08/11 16:26:25;;;;;;;12.60;2.90;;;;;;;;;;5011505;28;20118;-68
2022/08/11 16:28:55;;;;;;;8.52;2.70;;;;;;;;;;5011307;28;20182;-69
2022/08/11 16:31:22;;;;;;;9.82;3.10;;;;;;;;;;5010395;28;20053;-69
2022/08/11 16:33:49;;;;;;;11.48;2.90;;;;;;;;;;5010813;28;20556;-74
2022/08/11 16:39:02;;;;;;;10.43;2.80;;;;;;;;;;4996208;28;20087;-67
2022/08/11 16:47:01;;;;;;;7.22;2.60;;;;;;;;;;5011029;28;20160;-67
2022/08/11 16:49:32;;;;;;;12.60;3.13;;;;;;;;;;5010522;28;20069;-67
2022/08/11 16:52:02;;;;;;;10.00;2.88;;;;;;;;;;5010209;28;20145;-67
2022/08/11 16:54:29;;;;;;;9.30;2.60;;;;;;;;;;4993010;28;20068;-67
2022/08/11 16:56:55;;;;;;;11.45;3.22;;;;;;;;;;5010869;28;20159;-68
2022/08/11 16:59:36;;;;;;;11.55;3.13;;;;;;;;;;5010533;28;20470;-65
2022/08/11 17:02:07;;;;;;;21.80;3.35;;;;;;;;;;5010989;28;20069;-70
2022/08/11 17:13:09;;;;;;;10.90;2.80;;;;;;;;;;5011060;28;20136;-67
2022/08/11 17:18:41;;;;;;;9.27;3.05;;;;;;;;;;5011165;28;20054;-66
2022/08/11 17:21:13;;;;;;;10.85;2.83;;;;;;;;;;5010162;28;20050;-66
2022/08/11 17:23:47;;;;;;;9.50;3.28;;;;;;;;;;5010674;28;20088;-67
2022/08/11 17:26:55;;;;;;;8.20;3.22;;;;;;;;;;4993302;28;20425;-66
2022/08/11 17:29:40;;;;;;;11.20;3.05;;;;;;;;;;5011148;28;20144;-66
2022/08/11 17:37:40;;;;;;;10.30;3.25;;;;;;;;;;5010888;28;20058;-66
2022/08/11 17:40:12;;;;;;;9.68;2.80;;;;;;;;;;5010607;28;20496;-67
2022/08/11 17:48:26;;;;;;;8.63;3.22;;;;;;;;;;5010116;28;20069;-66
2022/08/11 17:50:53;;;;;;;10.40;3.70;;;;;;;;;;5010355;28;20152;-67
2022/08/11 18:01:46;;;;;;;12.45;3.55;;;;;;;;;;5010198;28;20127;-68
2022/08/11 18:04:14;;;;;;;9.10;2.80;;;;;;;;;;4976165;28;20069;-67
2022/08/11 18:06:41;;;;;;;10.13;3.17;;;;;;;;;;5009680;28;20371;-67
